Main page
METAR-TAF:

METAR-TAF

Airports :

Çiğli Air Base

Izmir, Turkey

latitude: 38-30N, longitude: 027-01E, elevation: 5 m

METAR: missing

Time: 10:18 (07:18 UTC)

Forecast

The report was made 2 hours and 38 minutes ago, at 04:40 UTC
Forecast valid from 18 at 06 UTC to 18 at 15 UTC
Wind 9 kt from the East/Southeast
Visibility 10 km or more
no clouds below 1500 m and no cumulonimbus
Becoming
from 18 at 08 UTC to 18 at 10 UTC
Wind 12 kt from the Southwest

TAF: LTBL 180440Z 1806/1815 12009KT CAVOK BECMG 1808/1810 22012KT

Weather observations and forecasts of more than 4000 airports (METAR and TAF reports).

The available stations are represented by yellow and red dots on the map.

Hover mouse over dot to see the name of the station.

Then click to see weather observations and forecasts.

To change the map : click on the green buttons with a black cross to zoom in, on the green button with a dash to zoom out, or on the green arrows for adjacent maps.


METAR-TAF: